createdAt,value
2023-01-22T00:01:45.940Z,81.70
2023-01-22T00:04:15.242Z,71.95
2023-01-22T00:06:43.943Z,76.40
2023-01-22T00:09:12.855Z,47.90
2023-01-22T00:14:11.327Z,82.10
2023-01-22T00:19:10.198Z,99.45
2023-01-22T00:21:39.012Z,87.65
2023-01-22T00:24:08.044Z,94.20
2023-01-22T00:31:34.799Z,69.47
2023-01-22T00:36:33.069Z,76.93
2023-01-22T00:39:01.799Z,90.70
2023-01-22T00:41:30.390Z,65.70
2023-01-22T00:46:27.560Z,80.72
2023-01-22T00:48:57.629Z,75.00
2023-01-22T00:53:54.658Z,87.80
2023-01-22T00:58:51.882Z,82.80
2023-01-22T01:03:48.905Z,81.20
2023-01-22T01:13:46.047Z,67.15
2023-01-22T01:16:16.729Z,90.60
2023-01-22T01:21:15.184Z,91.60
2023-01-22T01:30:20.601Z,76.30
2023-01-22T01:35:19.544Z,73.70
2023-01-22T01:37:48.343Z,46.27
2023-01-22T01:40:17.140Z,87.30
2023-01-22T01:42:45.778Z,67.30
2023-01-22T01:45:26.487Z,81.20
2023-01-22T01:47:56.581Z,86.05
2023-01-22T01:52:53.640Z,88.70
2023-01-22T01:55:25.436Z,86.50
2023-01-22T02:00:22.372Z,81.45
2023-01-22T02:02:52.602Z,76.60
2023-01-22T02:05:21.575Z,84.85
2023-01-22T02:07:50.102Z,85.10
2023-01-22T02:10:19.299Z,78.60
2023-01-22T02:16:10.241Z,90.40
2023-01-22T02:18:40.344Z,60.63
2023-01-22T02:21:23.947Z,78.30
2023-01-22T02:23:53.862Z,42.08
2023-01-22T02:26:23.188Z,72.87
2023-01-22T02:28:52.284Z,53.60
2023-01-22T02:36:17.801Z,87.75
2023-01-22T02:38:46.861Z,85.20
2023-01-22T02:41:17.037Z,77.70
2023-01-22T02:43:45.957Z,90.00
2023-01-22T02:46:15.725Z,96.60
2023-01-22T02:48:44.491Z,86.30
2023-01-22T02:51:13.180Z,88.77
2023-01-22T02:56:12.724Z,46.80
2023-01-22T03:01:19.126Z,48.75
2023-01-22T03:08:50.474Z,100.75
2023-01-22T03:14:05.291Z,88.60
2023-01-22T03:16:53.514Z,102.70
2023-01-22T03:24:42.934Z,74.40
2023-01-22T03:29:40.584Z,78.70
2023-01-22T03:37:32.681Z,82.10
2023-01-22T03:40:28.130Z,89.60
2023-01-22T03:42:56.928Z,74.90
2023-01-22T03:45:25.545Z,85.50
2023-01-22T03:50:29.050Z,88.70
2023-01-22T03:55:28.186Z,92.70
2023-01-22T03:57:56.778Z,83.30
2023-01-22T04:02:55.009Z,86.90
2023-01-22T04:05:28.744Z,78.10
2023-01-22T04:07:58.355Z,79.30
2023-01-22T04:15:30.475Z,90.10
2023-01-22T04:18:02.272Z,80.40
2023-01-22T04:25:50.826Z,72.90
2023-01-22T04:33:44.867Z,83.70
2023-01-22T04:38:50.399Z,84.00
2023-01-22T04:41:21.174Z,83.20
2023-01-22T04:43:49.788Z,69.65
2023-01-22T04:58:42.603Z,84.50
2023-01-22T05:01:11.396Z,74.20
2023-01-22T05:06:09.801Z,57.77
2023-01-22T05:08:40.701Z,92.70
2023-01-22T05:11:12.209Z,65.05
2023-01-22T05:13:50.625Z,85.10
2023-01-22T05:16:45.759Z,71.63
2023-01-22T05:19:14.491Z,87.50
2023-01-22T05:21:43.054Z,78.50
2023-01-22T05:26:42.689Z,93.35
2023-01-22T05:29:19.091Z,81.10
2023-01-22T05:32:04.502Z,88.40
2023-01-22T05:34:42.331Z,107.30
2023-01-22T05:39:40.235Z,48.40
2023-01-22T05:44:41.758Z,70.87
2023-01-22T05:47:10.701Z,82.80
2023-01-22T05:49:50.293Z,75.10
2023-01-22T05:52:19.098Z,89.30
2023-01-22T05:59:46.158Z,106.85
2023-01-22T06:02:16.050Z,93.20
2023-01-22T06:04:46.277Z,84.00
2023-01-22T06:15:19.750Z,94.25
2023-01-22T06:22:53.033Z,86.40
2023-01-22T06:30:33.320Z,102.80
2023-01-22T06:33:04.475Z,98.60
2023-01-22T06:43:05.056Z,104.30
2023-01-22T06:56:22.990Z,102.90
2023-01-22T07:03:51.580Z,90.07
2023-01-22T07:06:20.257Z,77.70
2023-01-22T07:08:48.765Z,80.80
2023-01-22T07:11:17.384Z,84.90
2023-01-22T07:23:42.127Z,100.30
2023-01-22T07:31:11.042Z,65.50
2023-01-22T07:33:39.777Z,76.95
2023-01-22T07:36:08.865Z,72.90
2023-01-22T07:38:37.471Z,71.30
2023-01-22T07:41:35.285Z,42.55
2023-01-22T07:44:13.231Z,89.70
2023-01-22T07:47:05.999Z,77.00
2023-01-22T07:49:34.522Z,83.45
2023-01-22T07:52:03.150Z,81.90
2023-01-22T07:57:02.375Z,78.20
2023-01-22T07:59:32.366Z,81.00
2023-01-22T08:04:31.998Z,91.70
2023-01-22T08:07:00.475Z,93.30
2023-01-22T08:09:29.099Z,90.30
2023-01-22T08:16:55.779Z,83.15
2023-01-22T08:26:49.404Z,88.00
2023-01-22T08:31:46.383Z,79.50
2023-01-22T08:34:16.364Z,77.20
2023-01-22T13:44:21.306Z,22.48
2023-01-22T13:46:50.623Z,55.78
2023-01-22T13:49:22.028Z,52.35
2023-01-22T13:51:50.932Z,172.90
2023-01-22T13:54:22.112Z,17.48
2023-01-22T13:56:50.656Z,26.30
2023-01-22T13:59:21.617Z,15.82
2023-01-22T14:01:50.448Z,16.52
2023-01-22T14:04:29.620Z,10.02
2023-01-22T14:06:58.067Z,10.60
2023-01-22T14:09:26.959Z,33.28
2023-01-22T14:11:55.637Z,10.20
2023-01-22T14:14:25.597Z,7.80
2023-01-22T14:16:53.997Z,7.47
2023-01-22T14:19:22.455Z,11.57
2023-01-22T14:21:50.938Z,7.95
2023-01-22T14:24:19.410Z,5.65
2023-01-22T14:26:47.737Z,8.50
2023-01-22T14:33:00.949Z,7.00
2023-01-22T14:35:30.509Z,12.20
2023-01-22T14:37:58.965Z,7.85
2023-01-22T14:40:28.202Z,7.30
2023-01-22T14:42:56.584Z,8.88
2023-01-22T14:45:25.013Z,8.25
2023-01-22T14:47:54.166Z,7.07
2023-01-22T14:50:24.083Z,8.77
2023-01-22T14:52:52.508Z,7.68
2023-01-22T14:55:21.292Z,9.35
2023-01-22T14:57:49.653Z,7.97
2023-01-22T15:00:19.354Z,9.50
2023-01-22T15:02:48.717Z,10.07
2023-01-22T15:05:17.171Z,8.95
2023-01-22T15:07:46.918Z,9.75
2023-01-22T15:10:15.295Z,8.93
2023-01-22T15:12:48.132Z,9.27
2023-01-22T15:15:16.572Z,7.85
2023-01-22T15:17:44.962Z,8.70
2023-01-22T15:20:39.187Z,8.55
2023-01-22T15:23:34.360Z,6.18
2023-01-22T15:26:03.857Z,8.02
2023-01-22T15:28:32.637Z,8.93
2023-01-22T15:31:07.534Z,7.85
2023-01-22T15:33:35.955Z,14.75
2023-01-22T15:36:04.654Z,10.20
2023-01-22T15:38:34.504Z,16.40
2023-01-22T15:41:03.851Z,17.77
2023-01-22T15:43:32.311Z,11.68
2023-01-22T15:46:00.891Z,13.07
2023-01-22T15:48:29.323Z,11.18
2023-01-22T15:51:07.280Z,10.68
2023-01-22T15:53:37.150Z,12.77
2023-01-22T15:56:06.430Z,14.75
2023-01-22T15:58:35.191Z,15.63
2023-01-22T16:01:03.713Z,14.90
2023-01-22T16:03:32.184Z,13.25
2023-01-22T16:06:09.124Z,17.60
2023-01-22T16:08:38.924Z,17.10
2023-01-22T16:11:07.839Z,13.65
2023-01-22T16:13:36.545Z,15.30
2023-01-22T16:16:05.914Z,14.15
2023-01-22T16:18:34.875Z,15.35
2023-01-22T16:21:03.615Z,14.23
2023-01-22T16:23:32.318Z,12.95
2023-01-22T16:26:02.711Z,16.13
2023-01-22T16:28:31.144Z,14.57
2023-01-22T16:31:04.041Z,16.70
2023-01-22T16:33:33.616Z,14.48
2023-01-22T16:36:02.450Z,21.90
2023-01-22T16:38:31.678Z,25.30
2023-01-22T16:41:07.354Z,13.52
2023-01-22T16:43:36.163Z,14.32
2023-01-22T16:46:05.159Z,22.92
2023-01-22T16:48:34.626Z,30.20
2023-01-22T16:51:03.169Z,16.75
2023-01-22T16:53:31.504Z,20.83
2023-01-22T16:55:59.987Z,34.55
2023-01-22T16:58:29.749Z,32.80
2023-01-22T17:00:58.085Z,58.42
2023-01-22T17:03:26.657Z,23.55
2023-01-22T17:05:54.963Z,19.90
2023-01-22T17:08:23.450Z,18.50
2023-01-22T17:10:51.791Z,24.55
2023-01-22T17:13:20.258Z,28.60
2023-01-22T17:15:52.562Z,19.25
2023-01-22T17:18:21.024Z,23.25
2023-01-22T17:21:01.635Z,16.63
2023-01-22T17:23:30.721Z,15.25
2023-01-22T17:25:59.105Z,16.35
2023-01-22T17:28:28.745Z,16.92
2023-01-22T17:31:00.450Z,14.80
2023-01-22T17:33:28.876Z,14.18
2023-01-22T17:35:59.330Z,13.93
2023-01-22T17:38:29.103Z,13.25
2023-01-22T17:40:57.529Z,14.82
2023-01-22T17:43:25.904Z,16.05
2023-01-22T17:45:54.345Z,13.48
2023-01-22T17:48:26.766Z,15.95
2023-01-22T17:50:55.261Z,12.07
2023-01-22T17:53:23.614Z,12.05
2023-01-22T17:55:52.142Z,15.07
2023-01-22T17:58:20.437Z,12.15
2023-01-22T18:00:48.995Z,11.32
2023-01-22T18:03:17.346Z,17.00
2023-01-22T18:05:47.528Z,12.18
2023-01-22T18:08:15.932Z,11.68
2023-01-22T18:10:44.336Z,10.07
2023-01-22T18:13:12.714Z,11.43
2023-01-22T18:15:41.200Z,9.57
2023-01-22T18:18:09.573Z,10.52
2023-01-22T18:20:38.079Z,13.50
2023-01-22T18:23:07.766Z,12.82
2023-01-22T18:25:41.482Z,12.20
2023-01-22T18:28:10.202Z,15.77
2023-01-22T18:30:38.667Z,9.80
2023-01-22T18:33:07.039Z,10.40
2023-01-22T18:35:36.167Z,9.52
2023-01-22T18:38:29.892Z,9.00
2023-01-22T18:41:25.196Z,8.80
2023-01-22T18:43:56.083Z,9.02
2023-01-22T18:46:25.575Z,8.55
2023-01-22T18:48:55.446Z,10.00
2023-01-22T18:51:24.527Z,20.17
2023-01-22T18:53:53.024Z,25.35
2023-01-22T18:56:21.725Z,11.23
2023-01-22T18:58:51.508Z,9.23
2023-01-22T19:01:21.396Z,9.27
2023-01-22T19:03:50.731Z,22.88
2023-01-22T19:06:19.956Z,18.02
2023-01-22T19:08:49.600Z,14.15
2023-01-22T19:11:18.253Z,20.40
2023-01-22T19:13:47.676Z,21.35
2023-01-22T19:16:18.344Z,17.48
2023-01-22T19:18:47.571Z,21.50
2023-01-22T19:21:17.143Z,16.42
2023-01-22T19:23:46.322Z,13.60
2023-01-22T19:26:16.638Z,13.43
2023-01-22T19:28:45.158Z,13.27
2023-01-22T19:31:18.678Z,11.13
2023-01-22T19:33:47.151Z,12.30
2023-01-22T19:36:16.017Z,14.10
2023-01-22T19:38:44.390Z,14.52
2023-01-22T19:41:12.867Z,16.30
2023-01-22T19:43:42.018Z,14.05
2023-01-22T19:46:11.196Z,16.67
2023-01-22T19:48:41.235Z,15.38
2023-01-22T19:51:14.452Z,16.88
2023-01-22T19:57:30.113Z,15.88
2023-01-22T19:59:59.436Z,15.32
2023-01-22T20:02:52.169Z,20.95
2023-01-22T20:05:47.534Z,17.52
2023-01-22T20:08:16.761Z,17.73
2023-01-22T20:10:45.377Z,15.27
2023-01-22T20:13:13.760Z,17.48
2023-01-22T20:15:42.615Z,17.10
2023-01-22T20:18:11.826Z,13.25
2023-01-22T20:20:40.246Z,17.02
2023-01-22T20:23:10.216Z,17.85
2023-01-22T20:25:40.286Z,14.77
2023-01-22T20:28:10.738Z,11.07
2023-01-22T20:30:39.194Z,8.80
2023-01-22T20:33:11.051Z,7.78
2023-01-22T20:35:42.015Z,10.43
2023-01-22T20:38:11.753Z,10.73
2023-01-22T20:40:42.054Z,9.55
2023-01-22T20:43:10.519Z,10.48
2023-01-22T20:45:39.011Z,12.10
2023-01-22T20:48:07.681Z,12.15
2023-01-22T20:50:36.067Z,13.80
2023-01-22T20:53:06.323Z,13.77
2023-01-22T20:55:36.143Z,14.40
2023-01-22T20:58:04.501Z,15.90
2023-01-22T21:00:32.955Z,17.85
2023-01-22T21:03:01.348Z,19.98
2023-01-22T21:05:29.939Z,17.75
2023-01-22T21:07:58.395Z,19.27
2023-01-22T21:10:26.784Z,19.67
2023-01-22T21:12:56.551Z,23.33
2023-01-22T21:15:24.885Z,23.17
2023-01-22T21:17:54.731Z,20.40
2023-01-22T21:20:23.071Z,19.75
2023-01-22T21:22:51.511Z,17.80
2023-01-22T21:25:22.314Z,18.50
2023-01-22T21:27:51.672Z,16.75
2023-01-22T21:30:21.664Z,20.63
2023-01-22T21:32:51.937Z,14.63
2023-01-22T21:35:20.424Z,21.10
2023-01-22T21:37:48.741Z,19.98
2023-01-22T21:40:19.252Z,17.42
2023-01-22T21:43:05.462Z,18.13
2023-01-22T21:45:53.006Z,19.88
2023-01-22T21:48:21.443Z,20.77
2023-01-22T21:50:49.923Z,18.73
2023-01-22T21:53:18.351Z,16.75
2023-01-22T21:55:51.392Z,19.10
2023-01-22T21:58:19.917Z,19.73
2023-01-22T22:00:49.888Z,19.10
2023-01-22T22:03:18.299Z,19.70
2023-01-22T22:05:56.040Z,16.58
2023-01-22T22:08:24.439Z,21.17
2023-01-22T22:10:52.777Z,18.58
2023-01-22T22:13:21.610Z,19.58
2023-01-22T22:15:51.652Z,20.50
2023-01-22T22:18:20.307Z,20.63
2023-01-22T22:20:48.674Z,17.85
2023-01-22T22:23:17.029Z,19.27
2023-01-22T22:25:48.895Z,19.08
2023-01-22T22:28:18.273Z,19.67
2023-01-22T22:30:46.691Z,19.88
2023-01-22T22:33:16.462Z,18.33
2023-01-22T22:35:45.976Z,20.35
2023-01-22T22:38:14.525Z,21.08
2023-01-22T22:40:42.910Z,17.30
2023-01-22T22:43:11.325Z,18.60
2023-01-22T22:45:40.054Z,17.67
2023-01-22T22:48:08.450Z,16.02
2023-01-22T22:50:40.934Z,18.25
2023-01-22T22:53:09.425Z,18.45
2023-01-22T22:56:02.648Z,21.90
2023-01-22T22:58:56.467Z,18.63
2023-01-22T23:01:25.594Z,19.88
2023-01-22T23:03:54.470Z,18.10
2023-01-22T23:06:26.305Z,18.88
2023-01-22T23:12:51.286Z,18.75
2023-01-22T23:15:19.658Z,18.45
2023-01-22T23:17:50.941Z,22.17
2023-01-22T23:20:20.256Z,19.42
2023-01-22T23:22:51.140Z,21.25
2023-01-22T23:25:19.721Z,18.58
2023-01-22T23:27:48.299Z,19.65
2023-01-22T23:30:17.304Z,19.05
2023-01-22T23:32:45.769Z,21.85
2023-01-22T23:35:14.178Z,20.60
2023-01-22T23:37:42.518Z,21.77
2023-01-22T23:40:13.249Z,18.10
2023-01-22T23:42:41.721Z,22.35
2023-01-22T23:45:11.940Z,19.92
2023-01-22T23:47:40.524Z,18.60
2023-01-22T23:50:10.242Z,18.38
2023-01-22T23:52:40.032Z,17.42
2023-01-22T23:55:09.082Z,19.23
2023-01-22T23:57:38.896Z,16.17
